createdAt,value
2022-10-15T00:01:42.364Z,98252.15
2022-10-15T00:04:10.472Z,98254.95
2022-10-15T00:06:38.472Z,98247.45
2022-10-15T00:09:06.534Z,98251.83
2022-10-15T00:11:36.037Z,98249.00
2022-10-15T00:14:04.125Z,98249.73
2022-10-15T00:16:33.648Z,98249.11
2022-10-15T00:19:01.816Z,98248.11
2022-10-15T00:21:30.280Z,98249.51
2022-10-15T00:23:58.536Z,98250.23
2022-10-15T00:26:29.168Z,98251.67
2022-10-15T00:29:01.275Z,98247.81
2022-10-15T00:31:32.056Z,98246.54
2022-10-15T00:34:02.796Z,98242.88
2022-10-15T00:36:34.914Z,98238.05
2022-10-15T00:39:05.717Z,98241.34
2022-10-15T00:41:42.076Z,98239.20
2022-10-15T00:44:29.244Z,98238.77
2022-10-15T00:47:25.162Z,98236.66
2022-10-15T00:50:10.748Z,98231.80
2022-10-15T00:53:05.143Z,98233.60
2022-10-15T00:55:38.965Z,98229.66
2022-10-15T00:58:15.305Z,98228.73
2022-10-15T01:00:43.615Z,98229.72
2022-10-15T01:03:12.968Z,98229.47
2022-10-15T01:05:44.066Z,98232.59
2022-10-15T01:08:12.420Z,98234.77
2022-10-15T01:10:55.642Z,98236.70
2022-10-15T01:14:02.855Z,98238.81
2022-10-15T01:16:41.864Z,98231.90
2022-10-15T01:20:11.005Z,98238.16
2022-10-15T01:23:34.811Z,98237.61
2022-10-15T01:26:56.317Z,98242.71
2022-10-15T01:30:21.928Z,98240.30
2022-10-15T01:33:30.566Z,98247.13
2022-10-15T01:36:35.695Z,98246.30
2022-10-15T01:39:19.363Z,98244.95
2022-10-15T01:41:53.658Z,98244.38
2022-10-15T01:44:32.576Z,98245.40
2022-10-15T01:47:55.256Z,98242.79
2022-10-15T01:50:27.747Z,98241.58
2022-10-15T01:52:57.381Z,98244.80
2022-10-15T01:55:26.777Z,98246.33
2022-10-15T01:57:58.629Z,98242.62
2022-10-15T02:00:26.923Z,98245.58
2022-10-15T02:03:01.181Z,98244.09
2022-10-15T02:05:40.787Z,98242.06
2022-10-15T02:08:35.997Z,98240.32
2022-10-15T02:11:16.685Z,98241.20
2022-10-15T02:14:03.379Z,98240.48
2022-10-15T02:17:03.100Z,98242.77
2022-10-15T02:19:54.635Z,98243.04
2022-10-15T02:22:32.720Z,98244.65
2022-10-15T02:25:09.908Z,98248.46
2022-10-15T02:27:41.035Z,98248.88
2022-10-15T02:30:11.108Z,98251.36
2022-10-15T02:32:41.599Z,98246.11
2022-10-15T02:35:11.897Z,98246.90
2022-10-15T02:37:48.354Z,98249.89
2022-10-15T02:40:25.021Z,98251.80
2022-10-15T02:42:53.601Z,98253.47
2022-10-15T02:45:21.775Z,98253.80
2022-10-15T02:47:49.882Z,98251.15
2022-10-15T02:50:19.159Z,98249.69
2022-10-15T02:52:47.161Z,98248.48
2022-10-15T02:55:15.934Z,98251.86
2022-10-15T02:57:44.000Z,98256.02
2022-10-15T03:00:12.831Z,98253.32
2022-10-15T03:02:41.256Z,98254.46
2022-10-15T03:05:09.488Z,98252.69
2022-10-15T03:07:38.065Z,98256.62
2022-10-15T03:10:07.347Z,98256.07
2022-10-15T03:12:35.897Z,98256.02
2022-10-15T03:15:06.558Z,98253.13
2022-10-15T03:17:35.050Z,98250.98
2022-10-15T03:20:03.808Z,98250.59
2022-10-15T03:22:32.396Z,98255.48
2022-10-15T03:25:00.768Z,98256.52
2022-10-15T03:27:29.239Z,98257.66
2022-10-15T03:29:58.052Z,98256.77
2022-10-15T03:32:27.052Z,98259.73
2022-10-15T03:34:55.111Z,98255.96
2022-10-15T03:37:24.062Z,98256.09
2022-10-15T03:39:52.345Z,98260.86
2022-10-15T03:42:21.274Z,98260.71
2022-10-15T03:44:51.173Z,98263.29
2022-10-15T03:47:19.771Z,98261.19
2022-10-15T03:49:49.366Z,98261.48
2022-10-15T03:52:17.956Z,98261.96
2022-10-15T03:54:47.101Z,98263.77
2022-10-15T03:57:17.177Z,98266.56
2022-10-15T03:59:48.379Z,98269.55
2022-10-15T04:02:17.014Z,98266.92
2022-10-15T04:04:45.352Z,98271.55
2022-10-15T04:07:13.557Z,98273.33
2022-10-15T04:09:41.939Z,98268.79
2022-10-15T04:13:02.510Z,98265.96
2022-10-15T04:15:33.153Z,98265.08
2022-10-15T04:18:05.176Z,98267.19
2022-10-15T04:20:33.219Z,98267.72
2022-10-15T04:23:12.231Z,98269.77
2022-10-15T04:25:42.680Z,98273.39
2022-10-15T04:28:11.086Z,98270.62
2022-10-15T04:30:39.647Z,98273.56
2022-10-15T04:33:09.937Z,98273.64
2022-10-15T04:35:38.104Z,98271.85
2022-10-15T04:38:09.792Z,98267.29
2022-10-15T04:41:28.512Z,98272.73
2022-10-15T04:44:03.099Z,98274.11
2022-10-15T04:46:32.253Z,98273.72
2022-10-15T04:49:03.752Z,98270.79
2022-10-15T04:51:32.161Z,98277.02
2022-10-15T04:54:23.207Z,98281.89
2022-10-15T04:56:57.824Z,98282.36
2022-10-15T04:59:26.331Z,98281.81
2022-10-15T05:02:12.686Z,98279.27
2022-10-15T05:04:41.118Z,98282.67
2022-10-15T05:07:09.433Z,98285.28
2022-10-15T05:09:38.233Z,98290.61
2022-10-15T05:12:07.423Z,98291.84
2022-10-15T05:14:35.835Z,98295.36
2022-10-15T05:17:10.288Z,98297.20
2022-10-15T05:19:42.369Z,98297.58
2022-10-15T05:22:16.985Z,98303.69
2022-10-15T05:24:50.409Z,98302.34
2022-10-15T05:27:32.756Z,98301.92
2022-10-15T05:30:01.354Z,98306.23
2022-10-15T05:32:36.973Z,98305.63
2022-10-15T05:35:05.876Z,98303.58
2022-10-15T05:38:29.370Z,98310.77
2022-10-15T05:40:57.800Z,98312.08
2022-10-15T05:43:26.037Z,98316.25
2022-10-15T05:45:55.470Z,98322.30
2022-10-15T05:48:23.695Z,98323.23
2022-10-15T05:50:52.224Z,98324.38
2022-10-15T05:53:24.764Z,98326.45
2022-10-15T05:55:58.842Z,98327.94
2022-10-15T05:58:32.120Z,98331.61
2022-10-15T06:01:06.221Z,98329.42
2022-10-15T06:03:37.321Z,98331.48
2022-10-15T06:06:05.587Z,98335.75
2022-10-15T06:08:36.704Z,98336.41
2022-10-15T06:11:08.349Z,98343.34
2022-10-15T06:13:39.978Z,98341.95
2022-10-15T06:16:09.129Z,98348.13
2022-10-15T06:18:38.877Z,98348.45
2022-10-15T06:21:11.567Z,98346.23
2022-10-15T06:23:40.087Z,98350.44
2022-10-15T06:26:10.048Z,98348.81
2022-10-15T06:28:39.904Z,98350.37
2022-10-15T06:31:08.337Z,98349.64
2022-10-15T06:33:37.040Z,98349.72
2022-10-15T06:36:08.434Z,98352.82
2022-10-15T06:38:37.269Z,98353.05
2022-10-15T06:41:07.858Z,98356.85
2022-10-15T06:43:36.235Z,98356.59
2022-10-15T06:46:06.415Z,98357.38
2022-10-15T06:48:34.944Z,98357.39
2022-10-15T06:51:04.086Z,98354.22
2022-10-15T06:53:32.234Z,98356.67
2022-10-15T06:56:04.284Z,98357.11
2022-10-15T06:58:37.280Z,98360.16
2022-10-15T07:01:07.646Z,98357.23
2022-10-15T07:03:36.652Z,98353.89
2022-10-15T07:06:07.244Z,98355.13
2022-10-15T07:08:36.081Z,98360.23
2022-10-15T07:11:06.268Z,98359.54
2022-10-15T07:13:34.312Z,98357.08
2022-10-15T07:16:08.062Z,98357.56
2022-10-15T07:18:37.079Z,98359.31
2022-10-15T07:21:07.827Z,98365.74
2022-10-15T07:23:35.888Z,98364.60
2022-10-15T07:26:04.027Z,98360.91
2022-10-15T07:28:32.271Z,98355.98
2022-10-15T07:31:06.295Z,98354.86
2022-10-15T07:33:34.724Z,98353.67
2022-10-15T07:36:15.005Z,98357.41
2022-10-15T07:38:43.604Z,98351.67
2022-10-15T07:41:11.977Z,98354.20
2022-10-15T07:43:44.243Z,98355.93
2022-10-15T07:46:12.318Z,98357.02
2022-10-15T07:48:40.490Z,98356.91
2022-10-15T07:51:10.867Z,98361.09
2022-10-15T07:53:38.998Z,98359.77
2022-10-15T07:56:10.894Z,98365.39
2022-10-15T07:58:39.131Z,98364.58
2022-10-15T08:01:09.571Z,98362.05
2022-10-15T08:03:38.416Z,98360.95
2022-10-15T08:06:08.071Z,98363.50
2022-10-15T08:08:37.013Z,98365.75
2022-10-15T08:11:11.542Z,98362.08
2022-10-15T08:13:43.628Z,98360.02
2022-10-15T08:16:15.096Z,98357.70
2022-10-15T08:18:48.527Z,98354.96
2022-10-15T08:21:16.621Z,98357.73
2022-10-15T08:23:44.601Z,98362.61
2022-10-15T08:26:12.734Z,98369.13
2022-10-15T08:28:40.746Z,98368.42
2022-10-15T08:31:08.821Z,98369.34
2022-10-15T08:33:38.545Z,98365.77
2022-10-15T08:36:07.868Z,98372.44
2022-10-15T08:38:35.917Z,98374.05
2022-10-15T08:41:19.928Z,98379.11
2022-10-15T08:43:48.503Z,98379.44
2022-10-15T08:46:49.336Z,98378.55
2022-10-15T08:49:31.671Z,98382.40
2022-10-15T08:52:16.201Z,98387.17
2022-10-15T08:54:44.338Z,98388.73
2022-10-15T08:57:24.547Z,98392.48
2022-10-15T09:00:02.875Z,98392.48
2022-10-15T09:02:42.889Z,98391.05
2022-10-15T09:05:34.441Z,98389.77
2022-10-15T09:08:18.052Z,98394.95
2022-10-15T09:10:57.717Z,98393.07
2022-10-15T09:13:41.112Z,98400.15
2022-10-15T09:16:25.638Z,98401.50
2022-10-15T09:18:54.365Z,98399.96
2022-10-15T09:21:25.946Z,98402.69
2022-10-15T09:24:02.171Z,98399.08
2022-10-15T09:38:21.359Z,98401.42
2022-10-15T09:41:28.541Z,98394.82
2022-10-15T09:43:59.675Z,98400.08
2022-10-15T09:46:30.160Z,98403.84
2022-10-15T09:49:18.828Z,98402.25
2022-10-15T09:52:27.114Z,98398.30
2022-10-15T09:55:41.249Z,98394.16
2022-10-15T09:58:20.078Z,98388.90
2022-10-15T10:01:16.919Z,98388.61
2022-10-15T10:03:44.947Z,98388.57
2022-10-15T10:06:14.604Z,98394.98
2022-10-15T10:08:56.287Z,98398.35
2022-10-15T10:11:27.240Z,98405.44
2022-10-15T10:14:00.889Z,98407.05
2022-10-15T10:16:30.324Z,98410.22
2022-10-15T10:19:16.456Z,98406.48
2022-10-15T10:21:46.114Z,98404.02
2022-10-15T10:24:34.338Z,98404.60
2022-10-15T10:29:39.941Z,98401.45
2022-10-15T10:32:22.064Z,98400.96
2022-10-15T10:34:52.822Z,98390.13
2022-10-15T10:37:21.756Z,98382.91
2022-10-15T10:39:57.752Z,98384.23
2022-10-15T10:42:38.268Z,98381.55
2022-10-15T10:45:24.092Z,98381.10
2022-10-15T10:47:52.156Z,98373.77
2022-10-15T10:50:37.811Z,98372.11
2022-10-15T10:53:25.343Z,98370.10
2022-10-15T10:55:56.575Z,98368.71
2022-10-15T10:58:33.295Z,98367.13
2022-10-15T11:01:01.695Z,98363.14
2022-10-15T11:03:39.691Z,98365.17
2022-10-15T11:06:51.160Z,98358.61
2022-10-15T11:09:55.403Z,98356.27
2022-10-15T11:12:24.721Z,98348.55
2022-10-15T11:15:41.760Z,98346.23
2022-10-15T11:18:48.170Z,98346.25
2022-10-15T11:21:54.337Z,98345.21
2022-10-15T11:25:06.927Z,98341.20
2022-10-15T11:27:49.228Z,98336.09
2022-10-15T11:30:49.898Z,98329.97
2022-10-15T11:34:04.847Z,98329.73
2022-10-15T11:37:00.583Z,98329.84
2022-10-15T11:39:46.886Z,98324.89
2022-10-15T11:42:41.577Z,98322.56
2022-10-15T11:45:15.701Z,98313.17
2022-10-15T11:48:11.350Z,98312.77
2022-10-15T11:50:54.981Z,98305.98
2022-10-15T11:53:44.119Z,98303.03
2022-10-15T11:56:22.982Z,98303.30
2022-10-15T12:01:43.645Z,98300.77
2022-10-15T12:04:27.655Z,98297.89
2022-10-15T12:07:01.513Z,98296.80
2022-10-15T12:09:37.089Z,98293.24
2022-10-15T12:12:41.793Z,98289.98
2022-10-15T12:15:44.580Z,98288.13
2022-10-15T12:18:44.667Z,98294.52
2022-10-15T12:21:45.044Z,98292.20
2022-10-15T12:24:37.809Z,98295.58
2022-10-15T12:27:18.637Z,98292.11
2022-10-15T12:30:02.806Z,98290.86
2022-10-15T12:32:48.790Z,98280.95
2022-10-15T12:35:24.371Z,98282.34
2022-10-15T12:37:52.543Z,98283.71
2022-10-15T12:40:28.104Z,98282.16
2022-10-15T12:43:03.327Z,98278.85
2022-10-15T12:45:50.772Z,98278.95
2022-10-15T12:48:22.215Z,98276.16
2022-10-15T12:50:50.445Z,98275.10
2022-10-15T12:53:32.642Z,98273.77
2022-10-15T12:56:10.085Z,98273.34
2022-10-15T12:58:54.245Z,98269.30
2022-10-15T13:01:22.628Z,98269.75
2022-10-15T13:03:50.900Z,98268.58
2022-10-15T13:06:24.925Z,98266.20
2022-10-15T13:09:11.249Z,98263.13
2022-10-15T13:11:47.109Z,98260.04
2022-10-15T13:14:30.483Z,98254.92
2022-10-15T13:17:05.237Z,98257.74
2022-10-15T13:19:41.238Z,98257.66
2022-10-15T13:22:24.717Z,98258.59
2022-10-15T13:24:53.965Z,98253.05
2022-10-15T13:27:32.098Z,98256.23
2022-10-15T13:30:06.791Z,98258.17
2022-10-15T13:32:47.044Z,98257.46
2022-10-15T13:35:26.313Z,98260.09
2022-10-15T13:37:56.642Z,98256.14
2022-10-15T13:40:30.349Z,98254.42
2022-10-15T13:43:21.484Z,98251.55
2022-10-15T13:45:59.793Z,98248.39
2022-10-15T13:48:31.421Z,98245.29
2022-10-15T13:51:05.754Z,98240.79
2022-10-15T13:53:41.248Z,98237.67
2022-10-15T13:56:27.680Z,98233.12
2022-10-15T13:58:57.415Z,98232.02
2022-10-15T14:01:28.276Z,98236.73
2022-10-15T14:03:59.961Z,98236.19
2022-10-15T14:06:34.479Z,98237.35
2022-10-15T14:09:19.172Z,98236.67
2022-10-15T14:11:47.265Z,98237.05
2022-10-15T14:14:46.608Z,98236.56
2022-10-15T14:17:20.746Z,98235.79
2022-10-15T14:20:14.748Z,98234.96
2022-10-15T14:22:49.418Z,98232.17
2022-10-15T14:25:25.322Z,98236.52
2022-10-15T14:27:53.866Z,98236.17
2022-10-15T14:30:44.197Z,98231.86
2022-10-15T14:33:37.974Z,98231.58
2022-10-15T14:36:17.973Z,98230.39
2022-10-15T14:38:46.143Z,98229.92
2022-10-15T14:41:34.588Z,98230.10
2022-10-15T14:44:16.923Z,98227.66
2022-10-15T14:46:50.519Z,98225.48
2022-10-15T14:49:34.532Z,98227.30
2022-10-15T14:52:12.178Z,98229.44
2022-10-15T14:54:45.377Z,98234.83
2022-10-15T14:57:24.585Z,98233.55
2022-10-15T14:59:56.026Z,98231.17
2022-10-15T15:02:27.466Z,98230.30
2022-10-15T15:05:08.415Z,98232.61
2022-10-15T15:07:36.622Z,98237.98
2022-10-15T15:10:06.752Z,98243.29
2022-10-15T15:12:36.152Z,98247.92
2022-10-15T15:15:05.069Z,98245.34
2022-10-15T15:17:33.261Z,98246.27
2022-10-15T15:20:01.454Z,98240.05
2022-10-15T15:22:35.628Z,98240.36
2022-10-15T15:25:15.675Z,98241.19
2022-10-15T15:27:43.881Z,98242.02
2022-10-15T15:30:22.949Z,98242.17
2022-10-15T15:32:51.903Z,98247.47
2022-10-15T15:35:44.217Z,98248.83
2022-10-15T15:38:13.289Z,98252.23
2022-10-15T15:40:41.613Z,98248.67
2022-10-15T15:43:13.660Z,98253.89
2022-10-15T15:45:42.330Z,98255.33
2022-10-15T15:48:10.549Z,98255.00
2022-10-15T15:50:38.644Z,98253.72
2022-10-15T15:53:06.676Z,98253.77
2022-10-15T15:55:34.717Z,98257.86
2022-10-15T15:58:02.829Z,98262.92
2022-10-15T16:00:30.908Z,98263.91
2022-10-15T16:02:58.931Z,98261.20
2022-10-15T16:05:27.137Z,98261.77
2022-10-15T16:07:55.192Z,98260.75
2022-10-15T16:10:24.072Z,98267.71
2022-10-15T16:12:52.437Z,98271.91
2022-10-15T16:15:20.520Z,98274.33
2022-10-15T16:17:48.639Z,98274.27
2022-10-15T16:20:16.821Z,98277.29
2022-10-15T16:22:44.874Z,98283.38
2022-10-15T16:25:12.937Z,98288.70
2022-10-15T16:27:40.988Z,98293.70
2022-10-15T16:30:10.249Z,98292.05
2022-10-15T16:32:38.237Z,98296.73
2022-10-15T16:35:07.599Z,98297.61
2022-10-15T16:37:36.301Z,98296.89
2022-10-15T16:40:05.066Z,98299.60
2022-10-15T16:42:33.320Z,98302.08
2022-10-15T16:45:01.447Z,98303.06
2022-10-15T16:47:29.654Z,98303.10
2022-10-15T16:49:57.732Z,98303.93
2022-10-15T16:52:26.059Z,98303.38
2022-10-15T16:54:54.283Z,98306.19
2022-10-15T16:57:22.315Z,98307.84
2022-10-15T16:59:50.383Z,98315.23
2022-10-15T17:02:18.649Z,98314.20
2022-10-15T17:04:46.955Z,98318.85
2022-10-15T17:07:15.046Z,98323.16
2022-10-15T17:09:45.110Z,98322.89
2022-10-15T17:12:13.300Z,98319.69
2022-10-15T17:14:41.373Z,98321.52
2022-10-15T17:17:09.456Z,98324.15
2022-10-15T17:19:37.588Z,98327.61
2022-10-15T17:22:05.741Z,98329.91
2022-10-15T17:24:33.780Z,98329.64
2022-10-15T17:27:01.822Z,98330.80
2022-10-15T17:29:33.258Z,98328.05
2022-10-15T17:32:02.892Z,98328.39
2022-10-15T17:34:31.171Z,98327.34
2022-10-15T17:36:59.244Z,98323.46
2022-10-15T17:39:27.278Z,98324.99
2022-10-15T17:41:55.392Z,98319.61
2022-10-15T17:44:23.430Z,98324.44
2022-10-15T17:46:52.801Z,98324.80
2022-10-15T17:49:27.364Z,98329.10
2022-10-15T17:51:55.383Z,98325.56
2022-10-15T17:54:23.435Z,98329.35
2022-10-15T17:56:51.468Z,98330.50
2022-10-15T17:59:19.515Z,98338.52
2022-10-15T18:02:02.963Z,98338.59
2022-10-15T18:04:35.149Z,98340.30
2022-10-15T18:07:03.250Z,98341.30
2022-10-15T18:09:31.596Z,98340.13
2022-10-15T18:12:01.970Z,98345.88
2022-10-15T18:14:32.289Z,98346.70
2022-10-15T18:17:00.520Z,98346.41
2022-10-15T18:19:28.636Z,98350.63
2022-10-15T18:21:56.992Z,98353.30
2022-10-15T18:24:25.186Z,98353.89
2022-10-15T18:26:53.883Z,98352.43
2022-10-15T18:29:22.640Z,98353.13
2022-10-15T18:31:56.445Z,98355.04
2022-10-15T18:34:25.775Z,98356.36
2022-10-15T18:36:54.215Z,98361.27
2022-10-15T18:39:26.369Z,98358.95
2022-10-15T18:41:54.614Z,98357.23
2022-10-15T18:44:23.591Z,98355.75
2022-10-15T18:46:52.175Z,98358.14
2022-10-15T18:49:20.973Z,98364.40
2022-10-15T18:51:51.924Z,98366.73
2022-10-15T18:54:21.485Z,98372.11
2022-10-15T18:56:50.265Z,98375.76
2022-10-15T18:59:20.522Z,98377.41
2022-10-15T19:01:50.934Z,98379.94
2022-10-15T19:04:21.153Z,98382.16
2022-10-15T19:06:53.425Z,98386.33
2022-10-15T19:09:26.399Z,98384.64
2022-10-15T19:11:57.835Z,98386.89
2022-10-15T19:14:28.252Z,98384.16
2022-10-15T19:16:56.834Z,98392.80
2022-10-15T19:19:25.604Z,98398.10
2022-10-15T19:21:58.509Z,98400.81
2022-10-15T19:24:26.756Z,98400.00
2022-10-15T19:26:54.823Z,98402.78
2022-10-15T19:29:22.927Z,98408.15
2022-10-15T19:31:54.791Z,98409.33
2022-10-15T19:34:23.733Z,98411.11
2022-10-15T19:36:51.985Z,98415.15
2022-10-15T19:39:23.775Z,98414.24
2022-10-15T19:41:52.936Z,98423.52
2022-10-15T19:44:25.486Z,98426.13
2022-10-15T19:46:56.856Z,98425.39
2022-10-15T19:49:25.369Z,98426.09
2022-10-15T20:01:07.741Z,98440.77
2022-10-15T20:06:09.084Z,98445.72
2022-10-15T20:08:37.199Z,98446.63
2022-10-15T20:11:09.451Z,98449.71
2022-10-15T20:13:37.548Z,98449.70
2022-10-15T20:16:10.018Z,98449.55
2022-10-15T20:18:38.121Z,98449.83
2022-10-15T20:21:15.557Z,98454.08
2022-10-15T20:23:44.953Z,98457.73
2022-10-15T20:26:15.540Z,98461.02
2022-10-15T20:28:45.955Z,98460.20
2022-10-15T20:31:21.415Z,98467.94
2022-10-15T20:33:50.342Z,98464.55
2022-10-15T20:36:22.797Z,98468.38
2022-10-15T20:38:52.258Z,98463.14
2022-10-15T20:41:20.374Z,98461.33
2022-10-15T20:43:54.948Z,98463.95
2022-10-15T20:46:37.226Z,98461.91
2022-10-15T20:51:45.066Z,98458.64
2022-10-15T20:54:14.283Z,98460.05
2022-10-15T20:56:42.714Z,98474.79
2022-10-15T20:59:11.904Z,98477.42
2022-10-15T21:01:40.079Z,98479.63
2022-10-15T21:04:08.515Z,98475.20
2022-10-15T21:06:36.549Z,98475.42
2022-10-15T21:09:04.929Z,98473.08
2022-10-15T21:11:33.271Z,98474.81
2022-10-15T21:14:01.780Z,98474.38
2022-10-15T21:16:33.458Z,98475.59
2022-10-15T21:19:01.561Z,98479.39
2022-10-15T21:21:29.955Z,98480.09
2022-10-15T21:23:59.081Z,98485.00
2022-10-15T21:26:27.103Z,98490.55
2022-10-15T21:28:57.905Z,98491.64
2022-10-15T21:31:27.522Z,98497.44
2022-10-15T21:33:55.848Z,98500.58
2022-10-15T21:36:27.820Z,98498.25
2022-10-15T21:39:02.705Z,98505.33
2022-10-15T21:41:33.752Z,98506.58
2022-10-15T21:44:04.069Z,98505.27
2022-10-15T21:46:33.185Z,98507.98
2022-10-15T21:49:03.452Z,98510.90
2022-10-15T21:51:33.781Z,98513.59
2022-10-15T21:54:04.640Z,98511.94
2022-10-15T21:56:33.686Z,98512.84
2022-10-15T21:59:02.393Z,98512.91
2022-10-15T22:01:33.859Z,98514.48
2022-10-15T22:04:07.661Z,98517.45
2022-10-15T22:06:39.998Z,98520.42
2022-10-15T22:09:09.702Z,98520.80
2022-10-15T22:11:41.062Z,98522.52
2022-10-15T22:14:12.872Z,98525.39
2022-10-15T22:16:42.106Z,98524.45
2022-10-15T22:19:14.524Z,98526.14
2022-10-15T22:21:42.987Z,98524.16
2022-10-15T22:24:18.986Z,98525.59
2022-10-15T22:26:52.797Z,98527.60
2022-10-15T22:29:34.557Z,98527.65
2022-10-15T22:32:04.032Z,98534.23
2022-10-15T22:34:32.162Z,98533.25
2022-10-15T22:37:00.255Z,98535.46
2022-10-15T22:39:28.373Z,98533.14
2022-10-15T22:41:56.500Z,98533.13
2022-10-15T22:44:24.559Z,98537.45
2022-10-15T22:46:52.568Z,98537.52
2022-10-15T22:49:22.440Z,98535.70
2022-10-15T22:51:51.446Z,98536.41
2022-10-15T22:54:22.024Z,98533.24
2022-10-15T22:56:51.707Z,98537.16
2022-10-15T22:59:20.309Z,98543.07
2022-10-15T23:01:48.546Z,98548.85
2022-10-15T23:04:16.788Z,98553.14
2022-10-15T23:06:44.955Z,98554.46
2022-10-15T23:09:17.979Z,98553.73
2022-10-15T23:11:46.757Z,98557.75
2022-10-15T23:14:16.729Z,98561.50
2022-10-15T23:16:47.628Z,98562.62
2022-10-15T23:19:19.945Z,98566.14
2022-10-15T23:21:57.179Z,98567.75
2022-10-15T23:24:27.487Z,98569.23
2022-10-15T23:26:55.755Z,98572.36
2022-10-15T23:29:26.211Z,98572.27
2022-10-15T23:31:55.243Z,98572.35
2022-10-15T23:34:26.143Z,98576.31
2022-10-15T23:36:54.354Z,98575.50
2022-10-15T23:39:26.722Z,98580.15
2022-10-15T23:41:55.442Z,98578.14
2022-10-15T23:44:25.750Z,98578.59
2022-10-15T23:46:55.148Z,98576.44
2022-10-15T23:49:23.189Z,98574.10
2022-10-15T23:51:51.235Z,98577.45
2022-10-15T23:54:19.669Z,98579.84
2022-10-15T23:56:48.722Z,98584.70
2022-10-15T23:59:18.335Z,98584.08
